Langholm, United Kingdom
Current Conditions -  °F | °C
As of 5:20 PM on Wednesday 28 Jan 2015 (Local Time) from EGNC Reporting Station
Moderate Snow Moderate Snow  
Wind Chill: 19°   Ceiling: 2400
Heat Index: 32°   Visibility: 6mi
Dew Point: 32°   Wind: 25mph
Humidity: 100%   Direction: 260°W
Pressure: 29.29"   Gusts: 39mph
Location:  55.15°N, 3°W
Report Text: EGNC 281720Z 26022G34KT 230V310 9999 7000W SN SCT016 BKN024 00/M00 Q0992
Loading
Personal Weather Stations






























Interactive Weather Map New forecast layout! Learn more

10-Day Weather Forecast

Advertisements
Track Severe Weather on mobile